sensor_id;sensor_type;location;lat;lon;timestamp;temperature;humidity
22925;DHT22;11628;51.072;3.712;2023-03-21T00:01:06;10.90;99.90
22925;DHT22;11628;51.072;3.712;2023-03-21T00:03:32;10.90;99.90
22925;DHT22;11628;51.072;3.712;2023-03-21T00:06:05;10.90;99.90
22925;DHT22;11628;51.072;3.712;2023-03-21T00:08:31;10.90;99.90
22925;DHT22;11628;51.072;3.712;2023-03-21T00:11:01;10.90;99.90
22925;DHT22;11628;51.072;3.712;2023-03-21T00:13:29;10.90;99.90
22925;DHT22;11628;51.072;3.712;2023-03-21T00:16:05;10.90;99.90
22925;DHT22;11628;51.072;3.712;2023-03-21T00:18:32;11.00;99.90
22925;DHT22;11628;51.072;3.712;2023-03-21T00:21:03;11.00;99.90
22925;DHT22;11628;51.072;3.712;2023-03-21T00:23:30;11.00;99.90
22925;DHT22;11628;51.072;3.712;2023-03-21T00:25:56;11.00;99.90
22925;DHT22;11628;51.072;3.712;2023-03-21T00:28:23;11.00;99.90
22925;DHT22;11628;51.072;3.712;2023-03-21T00:30:49;11.00;99.90
22925;DHT22;11628;51.072;3.712;2023-03-21T00:33:15;11.00;99.90
22925;DHT22;11628;51.072;3.712;2023-03-21T00:35:45;11.00;99.90
22925;DHT22;11628;51.072;3.712;2023-03-21T00:38:14;11.00;99.90
22925;DHT22;11628;51.072;3.712;2023-03-21T00:40:39;11.00;99.90
22925;DHT22;11628;51.072;3.712;2023-03-21T00:43:05;11.00;99.90
22925;DHT22;11628;51.072;3.712;2023-03-21T00:45:31;11.10;99.90
22925;DHT22;11628;51.072;3.712;2023-03-21T00:47:57;11.10;99.90
22925;DHT22;11628;51.072;3.712;2023-03-21T00:50:23;11.10;99.90
22925;DHT22;11628;51.072;3.712;2023-03-21T00:52:49;11.10;99.90
22925;DHT22;11628;51.072;3.712;2023-03-21T00:55:17;11.00;99.90
22925;DHT22;11628;51.072;3.712;2023-03-21T00:57:44;11.00;99.90
22925;DHT22;11628;51.072;3.712;2023-03-21T01:00:13;11.10;99.90
22925;DHT22;11628;51.072;3.712;2023-03-21T01:02:40;11.10;99.90
22925;DHT22;11628;51.072;3.712;2023-03-21T01:05:27;11.00;99.90
22925;DHT22;11628;51.072;3.712;2023-03-21T01:08:14;11.00;99.90
22925;DHT22;11628;51.072;3.712;2023-03-21T01:10:42;11.00;99.90
22925;DHT22;11628;51.072;3.712;2023-03-21T01:13:10;11.00;99.90
22925;DHT22;11628;51.072;3.712;2023-03-21T01:15:36;11.00;99.90
22925;DHT22;11628;51.072;3.712;2023-03-21T01:18:07;11.00;99.90
22925;DHT22;11628;51.072;3.712;2023-03-21T01:20:33;10.90;99.90
22925;DHT22;11628;51.072;3.712;2023-03-21T01:22:59;10.90;99.90
22925;DHT22;11628;51.072;3.712;2023-03-21T01:25:25;10.90;99.90
22925;DHT22;11628;51.072;3.712;2023-03-21T01:27:51;10.90;99.90
22925;DHT22;11628;51.072;3.712;2023-03-21T01:30:17;11.00;99.90
22925;DHT22;11628;51.072;3.712;2023-03-21T01:32:43;10.90;99.90
22925;DHT22;11628;51.072;3.712;2023-03-21T01:35:08;11.00;99.90
22925;DHT22;11628;51.072;3.712;2023-03-21T01:37:34;11.00;99.90
22925;DHT22;11628;51.072;3.712;2023-03-21T01:40:00;10.90;99.90
22925;DHT22;11628;51.072;3.712;2023-03-21T01:42:26;11.00;99.90
22925;DHT22;11628;51.072;3.712;2023-03-21T01:44:59;11.00;99.90
22925;DHT22;11628;51.072;3.712;2023-03-21T01:47:25;11.00;99.90
22925;DHT22;11628;51.072;3.712;2023-03-21T01:49:56;11.00;99.90
22925;DHT22;11628;51.072;3.712;2023-03-21T01:52:27;11.00;99.90
22925;DHT22;11628;51.072;3.712;2023-03-21T01:54:55;11.00;99.90
22925;DHT22;11628;51.072;3.712;2023-03-21T01:57:31;11.00;99.90
22925;DHT22;11628;51.072;3.712;2023-03-21T02:00:04;11.00;99.90
22925;DHT22;11628;51.072;3.712;2023-03-21T02:02:39;11.00;99.90
22925;DHT22;11628;51.072;3.712;2023-03-21T02:05:21;11.00;99.90
22925;DHT22;11628;51.072;3.712;2023-03-21T02:07:50;11.00;99.90
22925;DHT22;11628;51.072;3.712;2023-03-21T02:10:17;11.00;99.90
22925;DHT22;11628;51.072;3.712;2023-03-21T02:12:43;11.00;99.90
22925;DHT22;11628;51.072;3.712;2023-03-21T02:15:10;11.00;99.90
22925;DHT22;11628;51.072;3.712;2023-03-21T02:28:35;11.00;99.90
22925;DHT22;11628;51.072;3.712;2023-03-21T02:31:21;11.00;99.90
22925;DHT22;11628;51.072;3.712;2023-03-21T02:37:10;11.00;99.90
22925;DHT22;11628;51.072;3.712;2023-03-21T02:47:43;11.10;99.90
22925;DHT22;11628;51.072;3.712;2023-03-21T02:51:00;11.20;99.90
22925;DHT22;11628;51.072;3.712;2023-03-21T02:53:03;11.20;99.90
22925;DHT22;11628;51.072;3.712;2023-03-21T02:55:32;11.20;99.90
22925;DHT22;11628;51.072;3.712;2023-03-21T02:58:00;11.20;99.90
22925;DHT22;11628;51.072;3.712;2023-03-21T03:00:29;11.20;99.90
22925;DHT22;11628;51.072;3.712;2023-03-21T03:02:55;11.10;99.90
22925;DHT22;11628;51.072;3.712;2023-03-21T03:05:25;11.10;99.90
22925;DHT22;11628;51.072;3.712;2023-03-21T03:11:43;11.20;99.90
22925;DHT22;11628;51.072;3.712;2023-03-21T03:19:26;11.30;99.90
22925;DHT22;11628;51.072;3.712;2023-03-21T03:22:05;11.20;99.90
22925;DHT22;11628;51.072;3.712;2023-03-21T03:25:00;11.20;99.90
22925;DHT22;11628;51.072;3.712;2023-03-21T03:27:31;11.20;99.90
22925;DHT22;11628;51.072;3.712;2023-03-21T03:30:00;11.20;99.90
22925;DHT22;11628;51.072;3.712;2023-03-21T03:32:40;11.20;99.90
22925;DHT22;11628;51.072;3.712;2023-03-21T03:35:12;11.10;99.90
22925;DHT22;11628;51.072;3.712;2023-03-21T03:37:40;11.10;99.90
22925;DHT22;11628;51.072;3.712;2023-03-21T03:40:29;11.10;99.90
22925;DHT22;11628;51.072;3.712;2023-03-21T03:43:04;11.10;99.90
22925;DHT22;11628;51.072;3.712;2023-03-21T03:45:35;11.10;99.90
22925;DHT22;11628;51.072;3.712;2023-03-21T03:53:18;11.10;99.90
22925;DHT22;11628;51.072;3.712;2023-03-21T03:55:46;11.10;99.90
22925;DHT22;11628;51.072;3.712;2023-03-21T03:58:17;11.10;99.90
22925;DHT22;11628;51.072;3.712;2023-03-21T04:00:44;11.10;99.90
22925;DHT22;11628;51.072;3.712;2023-03-21T04:03:09;11.10;99.90
22925;DHT22;11628;51.072;3.712;2023-03-21T04:05:35;11.10;99.90
22925;DHT22;11628;51.072;3.712;2023-03-21T04:08:01;11.10;99.90
22925;DHT22;11628;51.072;3.712;2023-03-21T04:10:27;11.10;99.90
22925;DHT22;11628;51.072;3.712;2023-03-21T04:12:53;11.10;99.90
22925;DHT22;11628;51.072;3.712;2023-03-21T04:15:18;11.10;99.90
22925;DHT22;11628;51.072;3.712;2023-03-21T04:17:45;11.10;99.90
22925;DHT22;11628;51.072;3.712;2023-03-21T04:20:11;11.10;99.90
22925;DHT22;11628;51.072;3.712;2023-03-21T04:22:37;11.10;99.90
22925;DHT22;11628;51.072;3.712;2023-03-21T04:25:03;11.10;99.90
22925;DHT22;11628;51.072;3.712;2023-03-21T04:27:32;11.10;99.90
22925;DHT22;11628;51.072;3.712;2023-03-21T04:29:58;11.00;99.90
22925;DHT22;11628;51.072;3.712;2023-03-21T04:32:24;11.00;99.90
22925;DHT22;11628;51.072;3.712;2023-03-21T04:34:51;10.90;99.90
22925;DHT22;11628;51.072;3.712;2023-03-21T04:37:19;10.80;99.90
22925;DHT22;11628;51.072;3.712;2023-03-21T04:39:45;10.60;99.90
22925;DHT22;11628;51.072;3.712;2023-03-21T04:42:13;10.30;99.90
22925;DHT22;11628;51.072;3.712;2023-03-21T04:44:40;10.20;99.90
22925;DHT22;11628;51.072;3.712;2023-03-21T04:47:06;10.10;99.90
22925;DHT22;11628;51.072;3.712;2023-03-21T04:49:32;10.10;99.90
22925;DHT22;11628;51.072;3.712;2023-03-21T04:51:58;10.10;99.90
22925;DHT22;11628;51.072;3.712;2023-03-21T04:54:24;10.10;99.90
22925;DHT22;11628;51.072;3.712;2023-03-21T04:56:50;10.10;99.90
22925;DHT22;11628;51.072;3.712;2023-03-21T04:59:17;10.10;99.90
22925;DHT22;11628;51.072;3.712;2023-03-21T05:01:43;10.10;99.90
22925;DHT22;11628;51.072;3.712;2023-03-21T05:04:11;10.10;99.90
22925;DHT22;11628;51.072;3.712;2023-03-21T05:06:37;10.10;99.90
22925;DHT22;11628;51.072;3.712;2023-03-21T05:09:04;10.00;99.90
22925;DHT22;11628;51.072;3.712;2023-03-21T05:11:32;10.00;99.90
22925;DHT22;11628;51.072;3.712;2023-03-21T05:14:00;9.90;99.90
22925;DHT22;11628;51.072;3.712;2023-03-21T05:16:26;9.90;99.90
22925;DHT22;11628;51.072;3.712;2023-03-21T05:18:55;9.90;99.90
22925;DHT22;11628;51.072;3.712;2023-03-21T05:21:24;9.90;99.90
22925;DHT22;11628;51.072;3.712;2023-03-21T05:23:54;9.90;99.90
22925;DHT22;11628;51.072;3.712;2023-03-21T05:26:23;9.90;99.90
22925;DHT22;11628;51.072;3.712;2023-03-21T05:28:49;9.90;99.90
22925;DHT22;11628;51.072;3.712;2023-03-21T05:31:17;9.90;99.90
22925;DHT22;11628;51.072;3.712;2023-03-21T05:33:43;9.90;99.90
22925;DHT22;11628;51.072;3.712;2023-03-21T05:36:10;9.90;99.90
22925;DHT22;11628;51.072;3.712;2023-03-21T05:38:36;9.90;99.90
22925;DHT22;11628;51.072;3.712;2023-03-21T05:41:01;9.90;99.90
22925;DHT22;11628;51.072;3.712;2023-03-21T05:43:27;10.00;99.90
22925;DHT22;11628;51.072;3.712;2023-03-21T05:45:53;10.00;99.90
22925;DHT22;11628;51.072;3.712;2023-03-21T05:48:19;10.00;99.90
22925;DHT22;11628;51.072;3.712;2023-03-21T05:50:45;10.00;99.90
22925;DHT22;11628;51.072;3.712;2023-03-21T05:53:11;10.00;99.90
22925;DHT22;11628;51.072;3.712;2023-03-21T05:55:38;10.10;99.90
22925;DHT22;11628;51.072;3.712;2023-03-21T05:58:04;10.00;99.90
22925;DHT22;11628;51.072;3.712;2023-03-21T06:00:30;10.00;99.90
22925;DHT22;11628;51.072;3.712;2023-03-21T06:02:55;10.10;99.90
22925;DHT22;11628;51.072;3.712;2023-03-21T06:05:21;10.00;99.90
22925;DHT22;11628;51.072;3.712;2023-03-21T06:07:47;10.00;99.90
22925;DHT22;11628;51.072;3.712;2023-03-21T06:10:13;10.00;99.90
22925;DHT22;11628;51.072;3.712;2023-03-21T06:12:38;10.00;99.90
22925;DHT22;11628;51.072;3.712;2023-03-21T06:15:05;10.10;99.90
22925;DHT22;11628;51.072;3.712;2023-03-21T06:17:33;10.00;99.90
22925;DHT22;11628;51.072;3.712;2023-03-21T06:19:59;10.00;99.90
22925;DHT22;11628;51.072;3.712;2023-03-21T06:22:30;10.00;99.90
22925;DHT22;11628;51.072;3.712;2023-03-21T06:24:56;10.00;99.90
22925;DHT22;11628;51.072;3.712;2023-03-21T06:27:22;10.00;99.90
22925;DHT22;11628;51.072;3.712;2023-03-21T06:29:49;10.00;99.90
22925;DHT22;11628;51.072;3.712;2023-03-21T06:32:15;10.10;99.90
22925;DHT22;11628;51.072;3.712;2023-03-21T06:34:41;10.10;99.90
22925;DHT22;11628;51.072;3.712;2023-03-21T06:37:07;10.00;99.90
22925;DHT22;11628;51.072;3.712;2023-03-21T06:39:33;10.00;99.90
22925;DHT22;11628;51.072;3.712;2023-03-21T06:41:59;9.90;99.90
22925;DHT22;11628;51.072;3.712;2023-03-21T06:44:25;9.90;99.90
22925;DHT22;11628;51.072;3.712;2023-03-21T06:46:52;9.90;99.90
22925;DHT22;11628;51.072;3.712;2023-03-21T06:49:18;9.90;99.90
22925;DHT22;11628;51.072;3.712;2023-03-21T06:51:45;9.90;99.90
22925;DHT22;11628;51.072;3.712;2023-03-21T06:54:11;9.90;99.90
22925;DHT22;11628;51.072;3.712;2023-03-21T06:56:38;9.90;99.90
22925;DHT22;11628;51.072;3.712;2023-03-21T06:59:04;9.90;99.90
22925;DHT22;11628;51.072;3.712;2023-03-21T07:01:30;10.00;99.90
22925;DHT22;11628;51.072;3.712;2023-03-21T07:03:56;10.00;99.90
22925;DHT22;11628;51.072;3.712;2023-03-21T07:06:25;10.00;99.90
22925;DHT22;11628;51.072;3.712;2023-03-21T07:08:52;10.10;99.90
22925;DHT22;11628;51.072;3.712;2023-03-21T07:11:18;10.00;99.90
22925;DHT22;11628;51.072;3.712;2023-03-21T07:13:44;10.10;99.90
22925;DHT22;11628;51.072;3.712;2023-03-21T07:16:11;10.10;99.90
22925;DHT22;11628;51.072;3.712;2023-03-21T07:18:36;10.20;99.90
22925;DHT22;11628;51.072;3.712;2023-03-21T07:21:03;10.20;99.90
22925;DHT22;11628;51.072;3.712;2023-03-21T07:23:28;10.20;99.90
22925;DHT22;11628;51.072;3.712;2023-03-21T07:25:55;10.30;99.90
22925;DHT22;11628;51.072;3.712;2023-03-21T07:28:22;10.40;99.90
22925;DHT22;11628;51.072;3.712;2023-03-21T07:30:53;10.30;99.90
22925;DHT22;11628;51.072;3.712;2023-03-21T07:33:19;10.40;99.90
22925;DHT22;11628;51.072;3.712;2023-03-21T07:35:45;10.40;99.90
22925;DHT22;11628;51.072;3.712;2023-03-21T07:38:11;10.40;99.90
22925;DHT22;11628;51.072;3.712;2023-03-21T07:40:39;10.50;99.90
22925;DHT22;11628;51.072;3.712;2023-03-21T07:43:04;10.50;99.90
22925;DHT22;11628;51.072;3.712;2023-03-21T07:45:30;10.60;99.90
22925;DHT22;11628;51.072;3.712;2023-03-21T07:47:56;10.60;99.90
22925;DHT22;11628;51.072;3.712;2023-03-21T07:50:21;10.70;99.90
22925;DHT22;11628;51.072;3.712;2023-03-21T07:52:47;10.80;99.90
22925;DHT22;11628;51.072;3.712;2023-03-21T07:55:13;10.80;99.90
22925;DHT22;11628;51.072;3.712;2023-03-21T07:57:39;10.90;99.90
22925;DHT22;11628;51.072;3.712;2023-03-21T08:00:07;10.90;99.90
22925;DHT22;11628;51.072;3.712;2023-03-21T08:02:33;11.00;99.90
22925;DHT22;11628;51.072;3.712;2023-03-21T08:04:59;11.10;99.90
22925;DHT22;11628;51.072;3.712;2023-03-21T08:07:24;11.10;99.90
22925;DHT22;11628;51.072;3.712;2023-03-21T08:09:52;11.20;99.90
22925;DHT22;11628;51.072;3.712;2023-03-21T08:12:17;11.20;99.90
22925;DHT22;11628;51.072;3.712;2023-03-21T08:14:43;11.30;99.90
22925;DHT22;11628;51.072;3.712;2023-03-21T08:17:09;11.30;99.90
22925;DHT22;11628;51.072;3.712;2023-03-21T08:19:35;11.40;99.90
22925;DHT22;11628;51.072;3.712;2023-03-21T08:22:02;11.40;99.90
22925;DHT22;11628;51.072;3.712;2023-03-21T08:24:30;11.40;99.90
22925;DHT22;11628;51.072;3.712;2023-03-21T08:26:56;11.60;99.90
22925;DHT22;11628;51.072;3.712;2023-03-21T08:29:22;11.70;99.90
22925;DHT22;11628;51.072;3.712;2023-03-21T08:31:49;11.90;99.90
22925;DHT22;11628;51.072;3.712;2023-03-21T08:34:15;12.00;99.90
22925;DHT22;11628;51.072;3.712;2023-03-21T08:36:44;12.10;99.90
22925;DHT22;11628;51.072;3.712;2023-03-21T08:39:11;12.20;99.90
22925;DHT22;11628;51.072;3.712;2023-03-21T08:41:37;12.10;99.90
22925;DHT22;11628;51.072;3.712;2023-03-21T08:44:04;12.20;99.90
22925;DHT22;11628;51.072;3.712;2023-03-21T08:46:31;12.20;99.90
22925;DHT22;11628;51.072;3.712;2023-03-21T08:48:56;12.20;99.90
22925;DHT22;11628;51.072;3.712;2023-03-21T08:51:22;12.20;99.90
22925;DHT22;11628;51.072;3.712;2023-03-21T08:53:48;12.20;99.90
22925;DHT22;11628;51.072;3.712;2023-03-21T08:56:17;12.10;99.90
22925;DHT22;11628;51.072;3.712;2023-03-21T08:58:43;11.90;99.90
22925;DHT22;11628;51.072;3.712;2023-03-21T09:01:09;11.90;99.90
22925;DHT22;11628;51.072;3.712;2023-03-21T09:03:40;12.00;99.90
22925;DHT22;11628;51.072;3.712;2023-03-21T09:06:07;12.00;99.90
22925;DHT22;11628;51.072;3.712;2023-03-21T09:08:36;12.00;99.90
22925;DHT22;11628;51.072;3.712;2023-03-21T09:11:02;12.00;99.90
22925;DHT22;11628;51.072;3.712;2023-03-21T09:13:28;12.10;99.90
22925;DHT22;11628;51.072;3.712;2023-03-21T09:15:54;12.20;99.90
22925;DHT22;11628;51.072;3.712;2023-03-21T09:18:22;12.20;99.90
22925;DHT22;11628;51.072;3.712;2023-03-21T09:21:08;12.10;99.90
22925;DHT22;11628;51.072;3.712;2023-03-21T09:23:39;12.10;99.90
22925;DHT22;11628;51.072;3.712;2023-03-21T09:26:08;12.10;99.90
22925;DHT22;11628;51.072;3.712;2023-03-21T09:28:34;12.20;99.90
22925;DHT22;11628;51.072;3.712;2023-03-21T09:31:02;12.40;99.90
22925;DHT22;11628;51.072;3.712;2023-03-21T09:33:28;12.40;99.90
22925;DHT22;11628;51.072;3.712;2023-03-21T09:35:55;12.60;99.90
22925;DHT22;11628;51.072;3.712;2023-03-21T09:38:25;12.60;99.90
22925;DHT22;11628;51.072;3.712;2023-03-21T09:49:27;13.10;99.90
22925;DHT22;11628;51.072;3.712;2023-03-21T09:51:58;13.10;99.90
22925;DHT22;11628;51.072;3.712;2023-03-21T09:54:32;13.30;99.90
22925;DHT22;11628;51.072;3.712;2023-03-21T09:59:58;13.90;99.90
22925;DHT22;11628;51.072;3.712;2023-03-21T10:02:43;13.80;99.90
22925;DHT22;11628;51.072;3.712;2023-03-21T10:05:17;13.90;99.90
22925;DHT22;11628;51.072;3.712;2023-03-21T10:10:35;13.50;99.90
22925;DHT22;11628;51.072;3.712;2023-03-21T10:13:05;13.40;99.90
22925;DHT22;11628;51.072;3.712;2023-03-21T10:15:35;13.40;99.90
22925;DHT22;11628;51.072;3.712;2023-03-21T10:18:04;13.20;99.90
22925;DHT22;11628;51.072;3.712;2023-03-21T10:20:35;13.30;99.90
22925;DHT22;11628;51.072;3.712;2023-03-21T10:23:09;13.20;99.90
22925;DHT22;11628;51.072;3.712;2023-03-21T10:25:43;13.20;99.90
22925;DHT22;11628;51.072;3.712;2023-03-21T10:28:13;13.50;99.90
22925;DHT22;11628;51.072;3.712;2023-03-21T10:30:54;13.30;99.90
22925;DHT22;11628;51.072;3.712;2023-03-21T10:33:28;13.10;99.90
22925;DHT22;11628;51.072;3.712;2023-03-21T10:36:17;13.20;99.90
22925;DHT22;11628;51.072;3.712;2023-03-21T10:38:48;13.40;99.90
22925;DHT22;11628;51.072;3.712;2023-03-21T10:41:14;13.80;99.90
22925;DHT22;11628;51.072;3.712;2023-03-21T10:43:41;14.00;99.90
22925;DHT22;11628;51.072;3.712;2023-03-21T10:46:17;14.30;99.90
22925;DHT22;11628;51.072;3.712;2023-03-21T10:48:50;14.70;99.90
22925;DHT22;11628;51.072;3.712;2023-03-21T10:51:27;15.40;99.90
22925;DHT22;11628;51.072;3.712;2023-03-21T10:53:56;15.20;99.90
22925;DHT22;11628;51.072;3.712;2023-03-21T10:56:26;16.00;99.90
22925;DHT22;11628;51.072;3.712;2023-03-21T10:58:58;16.10;99.90
22925;DHT22;11628;51.072;3.712;2023-03-21T11:01:35;16.70;99.90
22925;DHT22;11628;51.072;3.712;2023-03-21T11:04:28;17.00;99.90
22925;DHT22;11628;51.072;3.712;2023-03-21T11:07:03;16.90;99.90
22925;DHT22;11628;51.072;3.712;2023-03-21T11:10:26;16.20;99.90
22925;DHT22;11628;51.072;3.712;2023-03-21T11:12:56;15.30;99.90
22925;DHT22;11628;51.072;3.712;2023-03-21T11:15:29;15.00;99.90
22925;DHT22;11628;51.072;3.712;2023-03-21T11:17:56;14.90;99.90
22925;DHT22;11628;51.072;3.712;2023-03-21T11:20:21;15.60;99.90
22925;DHT22;11628;51.072;3.712;2023-03-21T11:22:48;16.00;99.90
22925;DHT22;11628;51.072;3.712;2023-03-21T11:25:35;16.60;99.90
22925;DHT22;11628;51.072;3.712;2023-03-21T11:28:11;17.40;99.90
22925;DHT22;11628;51.072;3.712;2023-03-21T11:30:55;17.00;99.90
22925;DHT22;11628;51.072;3.712;2023-03-21T11:33:25;16.50;99.90
22925;DHT22;11628;51.072;3.712;2023-03-21T11:38:48;15.40;99.90
22925;DHT22;11628;51.072;3.712;2023-03-21T11:41:27;15.00;99.90
22925;DHT22;11628;51.072;3.712;2023-03-21T11:43:54;14.80;99.90
22925;DHT22;11628;51.072;3.712;2023-03-21T11:46:24;14.70;99.90
22925;DHT22;11628;51.072;3.712;2023-03-21T11:48:51;15.00;99.90
22925;DHT22;11628;51.072;3.712;2023-03-21T11:54:31;16.60;99.90
22925;DHT22;11628;51.072;3.712;2023-03-21T12:05:53;16.40;99.90
22925;DHT22;11628;51.072;3.712;2023-03-21T12:23:35;15.30;99.90
22925;DHT22;11628;51.072;3.712;2023-03-21T12:26:13;14.90;99.90
22925;DHT22;11628;51.072;3.712;2023-03-21T12:40:16;14.50;99.90
22925;DHT22;11628;51.072;3.712;2023-03-21T12:42:59;14.30;99.90
22925;DHT22;11628;51.072;3.712;2023-03-21T12:45:33;14.20;99.90
22925;DHT22;11628;51.072;3.712;2023-03-21T12:48:21;14.20;99.90
22925;DHT22;11628;51.072;3.712;2023-03-21T12:50:50;14.30;99.90
22925;DHT22;11628;51.072;3.712;2023-03-21T12:56:09;14.20;99.90
22925;DHT22;11628;51.072;3.712;2023-03-21T12:58:47;14.10;99.90
22925;DHT22;11628;51.072;3.712;2023-03-21T13:01:15;14.00;99.90
22925;DHT22;11628;51.072;3.712;2023-03-21T13:03:47;14.10;99.90
22925;DHT22;11628;51.072;3.712;2023-03-21T13:06:17;14.10;99.90
22925;DHT22;11628;51.072;3.712;2023-03-21T13:09:33;14.00;99.90
22925;DHT22;11628;51.072;3.712;2023-03-21T13:11:34;14.00;99.90
22925;DHT22;11628;51.072;3.712;2023-03-21T13:14:12;13.90;99.90
22925;DHT22;11628;51.072;3.712;2023-03-21T13:17:03;13.70;99.90
22925;DHT22;11628;51.072;3.712;2023-03-21T13:19:40;13.60;99.90
22925;DHT22;11628;51.072;3.712;2023-03-21T13:22:20;13.70;99.90
22925;DHT22;11628;51.072;3.712;2023-03-21T13:24:49;13.80;99.90
22925;DHT22;11628;51.072;3.712;2023-03-21T13:27:27;14.00;99.90
22925;DHT22;11628;51.072;3.712;2023-03-21T13:32:43;14.20;99.90
22925;DHT22;11628;51.072;3.712;2023-03-21T13:35:18;14.20;99.90
22925;DHT22;11628;51.072;3.712;2023-03-21T13:37:52;14.20;99.90
22925;DHT22;11628;51.072;3.712;2023-03-21T13:40:36;14.10;99.90
22925;DHT22;11628;51.072;3.712;2023-03-21T13:43:03;14.00;99.90
22925;DHT22;11628;51.072;3.712;2023-03-21T13:45:43;14.00;99.90
22925;DHT22;11628;51.072;3.712;2023-03-21T13:48:39;13.90;99.90
22925;DHT22;11628;51.072;3.712;2023-03-21T13:51:06;13.60;99.90
22925;DHT22;11628;51.072;3.712;2023-03-21T13:53:38;13.40;99.90
22925;DHT22;11628;51.072;3.712;2023-03-21T13:58:52;13.10;99.90
22925;DHT22;11628;51.072;3.712;2023-03-21T14:03:59;12.80;99.90
22925;DHT22;11628;51.072;3.712;2023-03-21T14:09:10;12.70;99.90
22925;DHT22;11628;51.072;3.712;2023-03-21T14:11:40;12.60;99.90
22925;DHT22;11628;51.072;3.712;2023-03-21T14:14:07;12.60;99.90
22925;DHT22;11628;51.072;3.712;2023-03-21T14:16:34;12.60;99.90
22925;DHT22;11628;51.072;3.712;2023-03-21T14:19:04;12.60;99.90
22925;DHT22;11628;51.072;3.712;2023-03-21T14:21:32;12.70;99.90
22925;DHT22;11628;51.072;3.712;2023-03-21T14:24:05;12.80;99.90
22925;DHT22;11628;51.072;3.712;2023-03-21T14:26:37;12.80;99.90
22925;DHT22;11628;51.072;3.712;2023-03-21T14:29:06;12.90;99.90
22925;DHT22;11628;51.072;3.712;2023-03-21T14:31:33;13.00;99.90
22925;DHT22;11628;51.072;3.712;2023-03-21T14:34:01;13.20;99.90
22925;DHT22;11628;51.072;3.712;2023-03-21T14:36:37;13.20;99.90
22925;DHT22;11628;51.072;3.712;2023-03-21T14:39:15;13.40;99.90
22925;DHT22;11628;51.072;3.712;2023-03-21T14:41:50;13.60;99.90
22925;DHT22;11628;51.072;3.712;2023-03-21T14:44:25;13.70;99.90
22925;DHT22;11628;51.072;3.712;2023-03-21T14:47:04;13.80;99.90
22925;DHT22;11628;51.072;3.712;2023-03-21T14:49:32;13.70;99.90
22925;DHT22;11628;51.072;3.712;2023-03-21T14:52:04;13.70;99.90
22925;DHT22;11628;51.072;3.712;2023-03-21T14:54:31;13.70;99.90
22925;DHT22;11628;51.072;3.712;2023-03-21T14:57:00;13.80;99.90
22925;DHT22;11628;51.072;3.712;2023-03-21T14:59:36;13.90;99.90
22925;DHT22;11628;51.072;3.712;2023-03-21T15:02:12;14.00;99.90
22925;DHT22;11628;51.072;3.712;2023-03-21T15:04:41;14.10;99.90
22925;DHT22;11628;51.072;3.712;2023-03-21T15:07:28;14.20;99.90
22925;DHT22;11628;51.072;3.712;2023-03-21T15:09:57;14.20;99.90
22925;DHT22;11628;51.072;3.712;2023-03-21T15:12:22;14.10;99.90
22925;DHT22;11628;51.072;3.712;2023-03-21T15:14:48;13.90;99.90
22925;DHT22;11628;51.072;3.712;2023-03-21T15:17:15;13.80;99.90
22925;DHT22;11628;51.072;3.712;2023-03-21T15:19:40;13.80;99.90
22925;DHT22;11628;51.072;3.712;2023-03-21T15:22:30;13.70;99.90
22925;DHT22;11628;51.072;3.712;2023-03-21T15:24:59;13.70;99.90
22925;DHT22;11628;51.072;3.712;2023-03-21T15:27:28;13.60;99.90
22925;DHT22;11628;51.072;3.712;2023-03-21T15:29:55;13.60;99.90
22925;DHT22;11628;51.072;3.712;2023-03-21T15:32:24;13.60;99.90
22925;DHT22;11628;51.072;3.712;2023-03-21T15:34:54;13.70;99.90
22925;DHT22;11628;51.072;3.712;2023-03-21T15:37:31;13.80;99.90
22925;DHT22;11628;51.072;3.712;2023-03-21T15:40:17;13.90;99.90
22925;DHT22;11628;51.072;3.712;2023-03-21T15:42:43;14.00;99.90
22925;DHT22;11628;51.072;3.712;2023-03-21T15:45:25;14.10;99.90
22925;DHT22;11628;51.072;3.712;2023-03-21T15:47:59;14.10;99.90
22925;DHT22;11628;51.072;3.712;2023-03-21T15:52:58;14.20;99.90
22925;DHT22;11628;51.072;3.712;2023-03-21T15:55:34;14.20;99.90
22925;DHT22;11628;51.072;3.712;2023-03-21T15:58:09;14.10;99.90
22925;DHT22;11628;51.072;3.712;2023-03-21T16:00:38;14.10;99.90
22925;DHT22;11628;51.072;3.712;2023-03-21T16:03:34;14.10;99.90
22925;DHT22;11628;51.072;3.712;2023-03-21T16:06:22;14.10;99.90
22925;DHT22;11628;51.072;3.712;2023-03-21T16:09:15;14.10;99.90
22925;DHT22;11628;51.072;3.712;2023-03-21T16:11:50;14.10;99.90
22925;DHT22;11628;51.072;3.712;2023-03-21T16:14:17;14.10;99.90
22925;DHT22;11628;51.072;3.712;2023-03-21T16:16:44;14.10;99.90
22925;DHT22;11628;51.072;3.712;2023-03-21T16:19:10;14.20;99.90
22925;DHT22;11628;51.072;3.712;2023-03-21T16:21:36;14.20;99.90
22925;DHT22;11628;51.072;3.712;2023-03-21T16:24:04;14.20;99.90
22925;DHT22;11628;51.072;3.712;2023-03-21T16:26:32;14.20;99.90
22925;DHT22;11628;51.072;3.712;2023-03-21T16:28:58;14.20;99.90
22925;DHT22;11628;51.072;3.712;2023-03-21T16:31:30;14.10;99.90
22925;DHT22;11628;51.072;3.712;2023-03-21T16:33:56;14.00;99.90
22925;DHT22;11628;51.072;3.712;2023-03-21T16:36:28;14.10;99.90
22925;DHT22;11628;51.072;3.712;2023-03-21T16:38:54;14.10;99.90
22925;DHT22;11628;51.072;3.712;2023-03-21T16:41:22;14.10;99.90
22925;DHT22;11628;51.072;3.712;2023-03-21T16:43:48;14.00;99.90
22925;DHT22;11628;51.072;3.712;2023-03-21T16:46:20;14.00;99.90
22925;DHT22;11628;51.072;3.712;2023-03-21T16:48:48;13.90;99.90
22925;DHT22;11628;51.072;3.712;2023-03-21T16:51:20;13.90;99.90
22925;DHT22;11628;51.072;3.712;2023-03-21T16:53:47;14.00;99.90
22925;DHT22;11628;51.072;3.712;2023-03-21T16:56:19;14.00;99.90
22925;DHT22;11628;51.072;3.712;2023-03-21T16:58:46;14.10;99.90
22925;DHT22;11628;51.072;3.712;2023-03-21T17:01:17;14.00;99.90
22925;DHT22;11628;51.072;3.712;2023-03-21T17:03:50;14.00;99.90
22925;DHT22;11628;51.072;3.712;2023-03-21T17:06:22;13.90;99.90
22925;DHT22;11628;51.072;3.712;2023-03-21T17:08:49;13.80;99.90
22925;DHT22;11628;51.072;3.712;2023-03-21T17:11:17;13.90;99.90
22925;DHT22;11628;51.072;3.712;2023-03-21T17:13:45;13.90;99.90
22925;DHT22;11628;51.072;3.712;2023-03-21T17:16:12;14.10;99.90
22925;DHT22;11628;51.072;3.712;2023-03-21T17:18:38;14.20;99.90
22925;DHT22;11628;51.072;3.712;2023-03-21T17:21:15;14.30;99.90
22925;DHT22;11628;51.072;3.712;2023-03-21T17:23:42;14.50;99.90
22925;DHT22;11628;51.072;3.712;2023-03-21T17:26:08;14.60;99.90
22925;DHT22;11628;51.072;3.712;2023-03-21T17:28:36;14.60;99.90
22925;DHT22;11628;51.072;3.712;2023-03-21T17:31:05;14.50;99.90
22925;DHT22;11628;51.072;3.712;2023-03-21T17:33:31;14.40;99.90
22925;DHT22;11628;51.072;3.712;2023-03-21T17:35:56;14.40;99.90
22925;DHT22;11628;51.072;3.712;2023-03-21T17:38:22;14.20;99.90